createdAt,value
2023-04-15T00:02:00.233Z,12.05
2023-04-15T00:04:28.054Z,12.00
2023-04-15T00:06:54.958Z,11.97
2023-04-15T00:09:21.684Z,11.93
2023-04-15T00:11:48.248Z,11.91
2023-04-15T00:14:14.840Z,11.88
2023-04-15T00:16:41.661Z,11.84
2023-04-15T00:19:08.512Z,11.79
2023-04-15T00:21:35.089Z,12.06
2023-04-15T00:24:02.040Z,11.77
2023-04-15T00:26:28.680Z,11.70
2023-04-15T00:28:55.255Z,11.68
2023-04-15T00:31:22.099Z,11.65
2023-04-15T00:33:48.900Z,11.63
2023-04-15T00:36:15.652Z,11.91
2023-04-15T00:38:42.224Z,11.64
2023-04-15T00:41:11.044Z,11.63
2023-04-15T00:43:38.345Z,11.59
2023-04-15T00:46:06.110Z,11.58
2023-04-15T00:48:32.840Z,11.57
2023-04-15T00:50:59.484Z,11.58
2023-04-15T00:53:26.072Z,11.58
2023-04-15T00:55:52.930Z,11.59
2023-04-15T00:58:19.611Z,11.59
2023-04-15T01:00:46.904Z,11.59
2023-04-15T01:03:14.288Z,11.59
2023-04-15T01:05:41.805Z,11.59
2023-04-15T01:08:08.410Z,11.60
2023-04-15T01:10:36.120Z,11.62
2023-04-15T01:13:04.118Z,11.62
2023-04-15T01:15:32.228Z,11.62
2023-04-15T01:17:59.576Z,11.62
2023-04-15T01:20:27.661Z,11.60
2023-04-15T01:22:55.012Z,11.59
2023-04-15T01:25:34.936Z,11.68
2023-04-15T01:28:01.610Z,11.58
2023-04-15T01:30:28.169Z,11.59
2023-04-15T01:32:55.135Z,11.58
2023-04-15T01:35:22.695Z,11.56
2023-04-15T01:37:49.607Z,11.54
2023-04-15T01:40:16.745Z,11.54
2023-04-15T01:42:43.310Z,11.54
2023-04-15T01:45:10.225Z,11.55
2023-04-15T01:47:36.791Z,11.54
2023-04-15T01:50:03.541Z,11.54
2023-04-15T01:52:30.563Z,11.54
2023-04-15T01:54:57.288Z,11.53
2023-04-15T01:57:23.744Z,11.82
2023-04-15T01:59:50.283Z,11.58
2023-04-15T02:02:17.601Z,11.56
2023-04-15T02:04:44.844Z,11.54
2023-04-15T02:07:11.458Z,11.54
2023-04-15T02:09:38.796Z,11.55
2023-04-15T02:12:06.033Z,11.54
2023-04-15T02:14:32.732Z,11.55
2023-04-15T02:17:06.810Z,11.84
2023-04-15T02:19:36.761Z,11.59
2023-04-15T02:22:03.325Z,11.54
2023-04-15T02:24:30.831Z,11.54
2023-04-15T02:26:57.723Z,11.52
2023-04-15T02:29:24.403Z,11.52
2023-04-15T02:31:51.274Z,11.53
2023-04-15T02:34:17.916Z,11.51
2023-04-15T02:36:44.458Z,11.53
2023-04-15T02:39:12.881Z,11.52
2023-04-15T02:41:39.768Z,11.50
2023-04-15T02:44:11.239Z,11.50
2023-04-15T02:46:38.010Z,11.52
2023-04-15T02:49:04.619Z,11.52
2023-04-15T02:51:32.375Z,11.52
2023-04-15T02:53:59.224Z,11.51
2023-04-15T02:56:25.839Z,11.51
2023-04-15T02:58:52.438Z,11.51
2023-04-15T03:01:19.309Z,11.52
2023-04-15T03:03:45.947Z,11.51
2023-04-15T03:06:12.543Z,11.53
2023-04-15T03:08:39.113Z,11.52
2023-04-15T03:11:05.712Z,11.54
2023-04-15T03:13:32.300Z,11.53
2023-04-15T03:15:58.969Z,11.53
2023-04-15T03:18:25.648Z,11.54
2023-04-15T03:20:52.223Z,11.53
2023-04-15T03:23:18.822Z,11.52
2023-04-15T03:25:45.930Z,11.53
2023-04-15T03:28:12.574Z,11.50
2023-04-15T03:30:39.126Z,11.51
2023-04-15T03:33:05.759Z,11.50
2023-04-15T03:35:32.402Z,11.50
2023-04-15T03:37:58.911Z,11.50
2023-04-15T03:40:25.595Z,11.49
2023-04-15T03:42:52.114Z,11.48
2023-04-15T03:45:18.795Z,11.47
2023-04-15T03:47:45.621Z,11.46
2023-04-15T03:50:12.724Z,11.73
2023-04-15T03:52:39.399Z,11.48
2023-04-15T03:55:06.168Z,11.45
2023-04-15T03:57:32.764Z,11.72
2023-04-15T03:59:59.385Z,11.45
2023-04-15T04:02:26.176Z,11.44
2023-04-15T04:04:53.126Z,11.42
2023-04-15T04:07:19.779Z,11.42
2023-04-15T04:09:47.439Z,11.42
2023-04-15T04:12:14.308Z,11.39
2023-04-15T04:14:40.922Z,11.67
2023-04-15T04:17:07.642Z,11.42
2023-04-15T04:19:34.226Z,11.68
2023-04-15T04:22:01.139Z,11.42
2023-04-15T04:24:27.727Z,11.38
2023-04-15T04:26:54.361Z,11.37
2023-04-15T04:29:21.002Z,11.36
2023-04-15T04:31:48.867Z,11.34
2023-04-15T04:34:16.276Z,11.31
2023-04-15T04:36:42.852Z,11.28
2023-04-15T04:39:09.451Z,11.29
2023-04-15T04:41:36.141Z,11.28
2023-04-15T04:44:02.717Z,11.27
2023-04-15T04:46:29.328Z,11.27
2023-04-15T04:48:55.926Z,11.27
2023-04-15T04:51:22.629Z,11.26
2023-04-15T04:53:49.088Z,11.53
2023-04-15T04:56:15.693Z,11.27
2023-04-15T04:58:42.618Z,11.25
2023-04-15T05:01:09.392Z,11.23
2023-04-15T05:03:36.153Z,11.50
2023-04-15T05:06:06.240Z,11.25
2023-04-15T05:08:33.132Z,11.21
2023-04-15T05:10:59.730Z,11.20
2023-04-15T05:13:26.538Z,11.20
2023-04-15T05:15:53.475Z,11.48
2023-04-15T05:18:20.741Z,11.21
2023-04-15T05:20:47.335Z,11.18
2023-04-15T05:23:13.922Z,11.18
2023-04-15T05:25:40.694Z,11.18
2023-04-15T05:28:07.197Z,11.44
2023-04-15T05:30:33.943Z,11.20
2023-04-15T05:33:00.456Z,11.46
2023-04-15T05:35:27.316Z,11.19
2023-04-15T05:37:53.840Z,11.18
2023-04-15T05:40:20.901Z,11.17
2023-04-15T05:42:47.474Z,11.15
2023-04-15T05:45:14.115Z,11.42
2023-04-15T05:47:40.679Z,11.19
2023-04-15T05:50:07.481Z,11.18
2023-04-15T05:52:34.019Z,11.44
2023-04-15T05:55:00.635Z,11.19
2023-04-15T05:57:27.174Z,11.17
2023-04-15T05:59:53.827Z,11.17
2023-04-15T06:02:20.649Z,11.16
2023-04-15T06:04:47.548Z,11.15
2023-04-15T06:07:14.274Z,11.16
2023-04-15T06:09:41.302Z,11.19
2023-04-15T06:12:12.297Z,11.23
2023-04-15T06:14:39.505Z,11.34
2023-04-15T06:17:06.388Z,11.46
2023-04-15T06:19:33.528Z,11.59
2023-04-15T06:22:00.271Z,11.73
2023-04-15T06:24:26.807Z,12.06
2023-04-15T06:26:53.357Z,12.02
2023-04-15T06:29:19.998Z,12.15
2023-04-15T06:31:48.254Z,12.32
2023-04-15T06:34:14.812Z,12.52
2023-04-15T06:36:41.359Z,12.73
2023-04-15T06:39:07.891Z,12.95
2023-04-15T06:41:35.577Z,13.15
2023-04-15T06:44:02.310Z,13.31
2023-04-15T06:46:28.746Z,13.68
2023-04-15T06:48:55.289Z,13.54
2023-04-15T06:51:23.003Z,13.54
2023-04-15T06:53:50.518Z,13.46
2023-04-15T06:56:17.135Z,13.40
2023-04-15T06:58:43.671Z,13.31
2023-04-15T07:01:10.509Z,13.19
2023-04-15T07:03:37.248Z,13.42
2023-04-15T07:06:06.679Z,13.03
2023-04-15T07:08:33.900Z,12.93
2023-04-15T07:11:01.710Z,12.82
2023-04-15T07:13:28.377Z,12.75
2023-04-15T07:15:54.921Z,13.03
2023-04-15T07:18:21.564Z,12.73
2023-04-15T07:20:48.429Z,12.67
2023-04-15T07:23:15.054Z,12.62
2023-04-15T07:25:41.875Z,12.58
2023-04-15T07:28:08.380Z,12.85
2023-04-15T07:30:35.028Z,12.54
2023-04-15T07:33:02.347Z,12.48
2023-04-15T07:35:29.604Z,12.43
2023-04-15T07:37:56.497Z,12.39
2023-04-15T07:40:23.172Z,12.36
2023-04-15T07:42:49.952Z,12.35
2023-04-15T07:45:17.137Z,12.65
2023-04-15T07:47:43.765Z,12.41
2023-04-15T07:50:13.566Z,12.38
2023-04-15T07:52:41.607Z,12.36
2023-04-15T07:55:09.050Z,12.33
2023-04-15T07:57:36.425Z,12.30
2023-04-15T08:00:08.096Z,12.28
2023-04-15T08:02:40.454Z,12.29
2023-04-15T08:05:07.848Z,12.24
2023-04-15T08:07:38.036Z,12.22
2023-04-15T08:10:05.299Z,12.19
2023-04-15T08:12:34.513Z,12.20
2023-04-15T08:15:02.174Z,12.17
2023-04-15T08:17:28.783Z,12.15
2023-04-15T08:19:55.525Z,12.15
2023-04-15T08:22:22.724Z,12.13
2023-04-15T08:24:49.372Z,12.12
2023-04-15T08:27:16.210Z,12.11
2023-04-15T08:29:46.135Z,12.39
2023-04-15T08:32:12.944Z,12.12
2023-04-15T08:34:40.086Z,12.09
2023-04-15T08:37:08.372Z,12.06
2023-04-15T08:39:35.337Z,12.05
2023-04-15T08:42:03.928Z,12.04
2023-04-15T08:44:33.543Z,12.04
2023-04-15T08:47:03.533Z,12.08
2023-04-15T08:49:30.700Z,12.05
2023-04-15T08:51:59.830Z,12.07
2023-04-15T08:54:27.483Z,12.04
2023-04-15T08:56:54.754Z,12.05
2023-04-15T08:59:22.530Z,12.06
2023-04-15T09:01:51.146Z,12.07
2023-04-15T09:04:18.156Z,12.06
2023-04-15T09:06:44.990Z,12.06
2023-04-15T09:09:13.337Z,12.35
2023-04-15T09:11:40.562Z,12.11
2023-04-15T09:14:07.191Z,12.10
2023-04-15T09:17:04.072Z,12.24
2023-04-15T09:19:31.804Z,12.10
2023-04-15T09:21:59.677Z,12.09
2023-04-15T09:24:37.592Z,12.17
2023-04-15T09:27:04.675Z,12.11
2023-04-15T09:29:31.740Z,12.12
2023-04-15T09:32:14.112Z,12.22
2023-04-15T09:34:40.798Z,12.15
2023-04-15T09:37:08.053Z,12.44
2023-04-15T09:40:01.360Z,12.32
2023-04-15T09:42:29.568Z,12.21
2023-04-15T09:44:56.232Z,12.20
2023-04-15T09:47:32.954Z,12.27
2023-04-15T09:50:01.202Z,12.23
2023-04-15T09:52:29.085Z,12.24
2023-04-15T09:54:58.673Z,12.27
2023-04-15T09:57:25.539Z,12.25
2023-04-15T09:59:52.614Z,12.24
2023-04-15T10:02:23.275Z,12.26
2023-04-15T10:04:50.885Z,12.27
2023-04-15T10:07:20.742Z,12.28
2023-04-15T10:09:49.275Z,12.30
2023-04-15T10:12:20.388Z,12.34
2023-04-15T10:14:56.855Z,12.37
2023-04-15T10:17:27.912Z,12.33
2023-04-15T10:19:55.965Z,12.34
2023-04-15T10:22:23.492Z,12.35
2023-04-15T10:24:51.280Z,12.35
2023-04-15T10:27:18.219Z,12.37
2023-04-15T10:29:44.964Z,12.38
2023-04-15T10:32:11.665Z,12.68
2023-04-15T10:34:38.586Z,12.44
2023-04-15T10:37:05.318Z,12.42
2023-04-15T10:39:34.934Z,12.72
2023-04-15T10:42:20.246Z,12.58
2023-04-15T10:44:54.075Z,12.50
2023-04-15T10:47:22.211Z,12.45
2023-04-15T10:49:52.681Z,12.45
2023-04-15T10:52:24.391Z,12.50
2023-04-15T10:55:01.982Z,12.45
2023-04-15T10:57:38.677Z,12.54
2023-04-15T11:00:09.052Z,12.54
2023-04-15T11:02:42.076Z,12.54
2023-04-15T11:05:10.660Z,12.51
2023-04-15T11:07:37.427Z,12.52
2023-04-15T11:10:05.023Z,12.80
2023-04-15T11:12:38.988Z,12.63
2023-04-15T11:15:27.640Z,12.69
2023-04-15T11:17:54.290Z,12.58
2023-04-15T11:20:21.331Z,12.85
2023-04-15T11:23:14.800Z,12.68
2023-04-15T11:25:41.941Z,12.61
2023-04-15T11:28:08.629Z,12.61
2023-04-15T11:30:35.983Z,12.89
2023-04-15T11:33:05.354Z,12.68
2023-04-15T11:35:32.596Z,12.65
2023-04-15T11:38:02.961Z,12.64
2023-04-15T11:40:31.569Z,12.66
2023-04-15T11:43:22.195Z,12.79
2023-04-15T11:45:48.850Z,12.69
2023-04-15T11:48:15.659Z,12.98
2023-04-15T11:50:42.259Z,12.75
2023-04-15T11:53:11.759Z,12.77
2023-04-15T11:55:53.327Z,12.84
2023-04-15T11:58:21.511Z,12.78
2023-04-15T12:00:53.550Z,12.82
2023-04-15T12:03:24.903Z,12.80
2023-04-15T12:06:20.744Z,12.89
2023-04-15T12:09:18.373Z,12.95
2023-04-15T12:11:50.356Z,12.91
2023-04-15T12:14:16.880Z,12.86
2023-04-15T12:16:48.718Z,12.91
2023-04-15T12:19:25.314Z,12.95
2023-04-15T12:21:54.152Z,12.91
2023-04-15T12:24:23.182Z,12.94
2023-04-15T12:26:55.130Z,12.99
2023-04-15T12:29:26.816Z,13.01
2023-04-15T12:31:55.835Z,13.01
2023-04-15T12:34:44.935Z,13.15
2023-04-15T12:37:16.206Z,13.05
2023-04-15T12:39:44.366Z,13.06
2023-04-15T12:42:11.786Z,13.07
2023-04-15T12:44:39.661Z,13.10
2023-04-15T12:47:08.201Z,13.11
2023-04-15T12:49:35.420Z,13.12
2023-04-15T12:52:03.224Z,13.14
2023-04-15T12:54:31.549Z,13.16
2023-04-15T12:56:58.747Z,13.15
2023-04-15T12:59:25.414Z,13.17
2023-04-15T13:01:52.835Z,13.46
2023-04-15T13:04:20.787Z,13.23
2023-04-15T13:06:47.874Z,13.22
2023-04-15T13:09:15.854Z,13.22
2023-04-15T13:11:42.780Z,13.21
2023-04-15T13:14:09.765Z,13.23
2023-04-15T13:16:36.541Z,13.23
2023-04-15T13:19:04.387Z,13.25
2023-04-15T13:21:35.336Z,13.25
2023-04-15T13:24:03.082Z,13.27
2023-04-15T13:26:29.933Z,13.29
2023-04-15T13:28:56.880Z,13.60
2023-04-15T13:31:23.460Z,13.37
2023-04-15T13:33:50.067Z,13.36
2023-04-15T13:36:16.767Z,13.37
2023-04-15T13:38:43.325Z,13.67
2023-04-15T13:41:09.941Z,13.43
2023-04-15T13:43:36.738Z,13.44
2023-04-15T13:46:03.428Z,13.72
2023-04-15T13:48:30.126Z,13.50
2023-04-15T13:50:56.620Z,13.79
2023-04-15T13:53:28.169Z,13.57
2023-04-15T13:56:05.926Z,13.58
2023-04-15T13:58:32.641Z,13.61
2023-04-15T14:00:59.186Z,13.92
2023-04-15T14:03:26.079Z,13.70
2023-04-15T14:05:56.182Z,13.74
2023-04-15T14:08:23.838Z,13.77
2023-04-15T14:10:50.519Z,13.80
2023-04-15T14:13:17.002Z,14.12
2023-04-15T14:15:43.555Z,13.95
2023-04-15T14:18:10.117Z,13.98
2023-04-15T14:20:36.665Z,14.04
2023-04-15T14:23:03.203Z,14.07
2023-04-15T14:25:33.720Z,14.10
2023-04-15T14:28:01.311Z,14.11
2023-04-15T14:30:27.969Z,14.15
2023-04-15T14:32:54.498Z,14.45
2023-04-15T14:35:21.110Z,14.24
2023-04-15T14:37:47.599Z,14.53
2023-04-15T14:40:14.200Z,14.32
2023-04-15T14:42:40.758Z,14.34
2023-04-15T14:45:07.909Z,14.38
2023-04-15T14:47:34.563Z,14.39
2023-04-15T14:50:01.139Z,14.69
2023-04-15T14:52:27.733Z,14.50
2023-04-15T14:54:54.292Z,14.54
2023-04-15T14:57:20.831Z,14.57
2023-04-15T14:59:47.485Z,14.60
2023-04-15T15:02:17.299Z,14.91
2023-04-15T15:04:53.167Z,14.74
2023-04-15T15:07:19.848Z,14.80
2023-04-15T15:09:46.392Z,14.85
2023-04-15T15:12:13.016Z,14.93
2023-04-15T15:14:39.513Z,15.23
2023-04-15T15:17:12.229Z,15.07
2023-04-15T15:19:49.923Z,15.13
2023-04-15T15:22:44.094Z,15.25
2023-04-15T15:25:11.075Z,15.28
2023-04-15T15:27:38.400Z,15.34
2023-04-15T15:30:06.924Z,15.39
2023-04-15T15:32:33.639Z,15.43
2023-04-15T15:35:00.246Z,15.73
2023-04-15T15:37:26.874Z,15.55
2023-04-15T15:39:53.447Z,15.83
2023-04-15T15:42:20.073Z,15.61
2023-04-15T15:44:46.664Z,15.88
2023-04-15T15:47:13.257Z,15.65
2023-04-15T15:49:39.992Z,15.92
2023-04-15T15:52:06.833Z,15.67
2023-04-15T15:54:33.739Z,15.64
2023-04-15T15:57:00.468Z,15.64
2023-04-15T15:59:27.565Z,15.63
2023-04-15T16:01:54.306Z,15.63
2023-04-15T16:04:21.159Z,15.64
2023-04-15T16:06:48.543Z,15.65
2023-04-15T16:09:15.333Z,15.66
2023-04-15T16:11:41.992Z,15.68
2023-04-15T16:14:08.647Z,15.98
2023-04-15T16:16:35.782Z,15.74
2023-04-15T16:19:02.693Z,15.72
2023-04-15T16:21:29.580Z,15.70
2023-04-15T16:23:56.271Z,16.00
2023-04-15T16:26:23.347Z,15.73
2023-04-15T16:28:49.994Z,15.70
2023-04-15T16:31:16.575Z,16.00
2023-04-15T16:33:43.214Z,15.71
2023-04-15T16:36:09.831Z,16.00
2023-04-15T16:38:36.469Z,15.71
2023-04-15T16:41:03.041Z,15.99
2023-04-15T16:43:29.778Z,15.70
2023-04-15T16:45:56.611Z,15.67
2023-04-15T16:48:23.317Z,15.65
2023-04-15T16:50:49.888Z,15.95
2023-04-15T16:53:16.616Z,15.64
2023-04-15T16:55:43.308Z,15.63
2023-04-15T16:58:09.837Z,15.92
2023-04-15T17:00:37.078Z,15.61
2023-04-15T17:03:06.167Z,15.57
2023-04-15T17:05:33.253Z,15.55
2023-04-15T17:07:59.910Z,15.53
2023-04-15T17:10:26.842Z,15.84
2023-04-15T17:12:56.333Z,15.56
2023-04-15T17:15:23.016Z,15.52
2023-04-15T17:17:49.744Z,15.81
2023-04-15T17:20:17.669Z,15.53
2023-04-15T17:22:46.175Z,15.51
2023-04-15T17:25:14.003Z,15.45
2023-04-15T17:27:40.879Z,15.43
2023-04-15T17:30:08.542Z,15.41
2023-04-15T17:32:35.599Z,15.39
2023-04-15T17:35:06.559Z,15.43
2023-04-15T17:37:36.497Z,15.43
2023-04-15T17:40:04.036Z,15.39
2023-04-15T17:42:31.435Z,15.39
2023-04-15T17:44:57.958Z,15.71
2023-04-15T17:47:24.623Z,15.44
2023-04-15T17:49:51.334Z,15.42
2023-04-15T17:52:17.993Z,15.73
2023-04-15T17:54:46.102Z,15.47
2023-04-15T17:57:12.783Z,15.43
2023-04-15T17:59:44.036Z,15.73
2023-04-15T18:02:11.808Z,15.48
2023-04-15T18:04:39.270Z,15.44
2023-04-15T18:07:06.521Z,15.43
2023-04-15T18:09:33.165Z,15.43
2023-04-15T18:11:59.689Z,15.74
2023-04-15T18:14:34.097Z,15.46
2023-04-15T18:17:02.415Z,15.45
2023-04-15T18:19:30.399Z,15.45
2023-04-15T18:21:57.062Z,15.44
2023-04-15T18:24:23.617Z,15.76
2023-04-15T18:26:50.312Z,15.48
2023-04-15T18:29:17.050Z,15.77
2023-04-15T18:31:43.959Z,15.46
2023-04-15T18:34:10.942Z,15.42
2023-04-15T18:36:37.773Z,15.38
2023-04-15T18:39:12.631Z,15.36
2023-04-15T18:41:39.443Z,15.35
2023-04-15T18:44:06.362Z,15.34
2023-04-15T18:46:32.994Z,15.33
2023-04-15T18:48:59.598Z,15.65
2023-04-15T18:51:26.275Z,15.37
2023-04-15T18:53:52.858Z,15.67
2023-04-15T18:56:19.502Z,15.38
2023-04-15T18:59:09.276Z,15.67
2023-04-15T19:01:33.137Z,15.37
2023-04-15T19:03:59.917Z,15.33
2023-04-15T19:06:27.420Z,15.32
2023-04-15T19:08:54.427Z,15.30
2023-04-15T19:11:21.052Z,15.30
2023-04-15T19:13:47.654Z,15.61
2023-04-15T19:16:14.304Z,15.34
2023-04-15T19:18:40.860Z,15.63
2023-04-15T19:21:07.649Z,15.34
2023-04-15T19:23:34.359Z,15.32
2023-04-15T19:26:01.109Z,15.62
2023-04-15T19:28:28.464Z,15.35
2023-04-15T19:30:55.375Z,15.30
2023-04-15T19:33:22.212Z,15.28
2023-04-15T19:35:50.217Z,15.27
2023-04-15T21:52:30.314Z,14.75
2023-04-15T21:54:56.906Z,14.70
2023-04-15T21:57:23.426Z,14.67
2023-04-15T21:59:50.006Z,14.65
2023-04-15T22:02:16.846Z,14.64
2023-04-15T22:04:43.587Z,14.62
2023-04-15T22:07:10.106Z,14.94
2023-04-15T22:09:36.684Z,14.66
2023-04-15T22:12:04.417Z,14.65
2023-04-15T22:14:31.144Z,14.62
2023-04-15T22:16:57.642Z,14.92
2023-04-15T22:19:24.322Z,14.66
2023-04-15T22:21:51.369Z,14.96
2023-04-15T22:24:38.238Z,14.66
2023-04-15T22:27:04.584Z,14.63
2023-04-15T22:29:31.229Z,14.60
2023-04-15T22:31:58.061Z,14.58
2023-04-15T22:34:24.720Z,14.55
2023-04-15T22:36:51.977Z,14.86
2023-04-15T22:39:19.986Z,14.59
2023-04-15T22:41:46.909Z,14.54
2023-04-15T22:44:13.546Z,14.52
2023-04-15T22:46:40.038Z,14.83
2023-04-15T22:49:10.673Z,14.58
2023-04-15T22:51:38.302Z,14.49
2023-04-15T22:54:04.942Z,14.46
2023-04-15T22:56:31.470Z,14.77
2023-04-15T22:58:58.077Z,14.47
2023-04-15T23:01:24.626Z,14.77
2023-04-15T23:03:56.729Z,14.48
2023-04-15T23:06:31.556Z,14.44
2023-04-15T23:08:58.148Z,14.42
2023-04-15T23:11:24.744Z,14.41
2023-04-15T23:13:51.335Z,14.42
2023-04-15T23:16:17.913Z,14.41
2023-04-15T23:18:44.555Z,14.71
2023-04-15T23:21:11.210Z,14.43
2023-04-15T23:23:37.707Z,14.73
2023-04-15T23:26:04.436Z,14.44
2023-04-15T23:28:31.224Z,14.40
2023-04-15T23:31:00.327Z,14.38
2023-04-15T23:33:27.481Z,14.38
2023-04-15T23:35:54.065Z,14.37
2023-04-15T23:38:20.724Z,14.37
2023-04-15T23:40:47.227Z,14.66
2023-04-15T23:43:13.768Z,14.38
2023-04-15T23:45:40.397Z,14.36
2023-04-15T23:48:07.161Z,14.65
2023-04-15T23:50:33.898Z,14.36
2023-04-15T23:53:00.370Z,14.63
2023-04-15T23:55:27.002Z,14.32
2023-04-15T23:57:53.506Z,14.59
